Terminal Aerodrome Forecast
Issued by NWS Knoxville/Tri Cities, TN

Home | Current Version | Previous Version | Text Only | Print | Product List | Glossary On
Versions: 1 2 3 4 5 6 7 8 9 10 11 12 13 14 15
000
FTUS44 KMRX 300523
TAFCHA
TAF
KCHA 300523Z 3006/0106 32003KT P6SM SCT060
     FM301000 33003KT P6SM BKN035
     FM301600 25005KT P6SM SCT045=

USA.gov is the U.S. government's official web portal to all federal, state and local government web resources and services.